Terminal Aerodrome Forecast
Issued by NWS Portland, OR

Home | Current Version | Previous Version | Text Only | Print | Product List | Glossary On
Versions: 1 2 3 4 5 6 7 8 9 10 11 12 13 14
000
FTUS46 KPQR 030531
TAFHIO
TAF
KHIO 030531Z 0306/0406 28006KT P6SM VCSH BKN070 BKN120
     FM030700 VRB03KT P6SM VCTS BKN060CB OVC120
     FM031400 VRB03KT P6SM SCT025 BKN060
     FM031900 31006KT P6SM SCT040 SCT070 BKN200
     FM032300 31006KT P6SM -SHRA BKN050 BKN080=

USA.gov is the U.S. government's official web portal to all federal, state and local government web resources and services.